sensor_id;sensor_type;location;lat;lon;timestamp;P1;durP1;ratioP1;P2;durP2;ratioP2
65835;SDS011;52595;51.608;7.216;2023-01-01T00:01:06;18.98;;;9.25;;
65835;SDS011;52595;51.608;7.216;2023-01-01T00:03:36;12.95;;;8.05;;
65835;SDS011;52595;51.608;7.216;2023-01-01T00:06:05;18.77;;;8.73;;
65835;SDS011;52595;51.608;7.216;2023-01-01T00:08:35;18.48;;;8.90;;
65835;SDS011;52595;51.608;7.216;2023-01-01T00:11:05;14.88;;;6.78;;
65835;SDS011;52595;51.608;7.216;2023-01-01T00:13:31;14.13;;;6.72;;
65835;SDS011;52595;51.608;7.216;2023-01-01T00:16:12;18.42;;;8.07;;
65835;SDS011;52595;51.608;7.216;2023-01-01T00:18:38;15.55;;;6.68;;
65835;SDS011;52595;51.608;7.216;2023-01-01T00:21:04;16.17;;;7.03;;
65835;SDS011;52595;51.608;7.216;2023-01-01T00:23:37;18.75;;;6.97;;
65835;SDS011;52595;51.608;7.216;2023-01-01T00:26:10;12.77;;;6.43;;
65835;SDS011;52595;51.608;7.216;2023-01-01T00:28:37;11.80;;;5.32;;
65835;SDS011;52595;51.608;7.216;2023-01-01T00:31:13;15.80;;;6.45;;
65835;SDS011;52595;51.608;7.216;2023-01-01T00:33:43;11.50;;;5.68;;
65835;SDS011;52595;51.608;7.216;2023-01-01T00:36:11;15.18;;;6.72;;
65835;SDS011;52595;51.608;7.216;2023-01-01T00:38:41;14.30;;;7.13;;
65835;SDS011;52595;51.608;7.216;2023-01-01T00:41:07;16.35;;;6.75;;
65835;SDS011;52595;51.608;7.216;2023-01-01T00:43:33;13.32;;;6.80;;
65835;SDS011;52595;51.608;7.216;2023-01-01T00:45:59;22.20;;;8.35;;
65835;SDS011;52595;51.608;7.216;2023-01-01T00:48:25;13.02;;;6.80;;
65835;SDS011;52595;51.608;7.216;2023-01-01T00:50:50;16.98;;;8.80;;
65835;SDS011;52595;51.608;7.216;2023-01-01T00:53:17;20.23;;;9.93;;
65835;SDS011;52595;51.608;7.216;2023-01-01T00:55:43;20.75;;;10.63;;
65835;SDS011;52595;51.608;7.216;2023-01-01T00:58:09;24.08;;;11.05;;
65835;SDS011;52595;51.608;7.216;2023-01-01T01:00:35;23.80;;;10.95;;
65835;SDS011;52595;51.608;7.216;2023-01-01T01:03:00;21.00;;;11.52;;
65835;SDS011;52595;51.608;7.216;2023-01-01T01:05:26;20.70;;;10.38;;
65835;SDS011;52595;51.608;7.216;2023-01-01T01:07:51;23.35;;;12.30;;
65835;SDS011;52595;51.608;7.216;2023-01-01T01:10:17;27.58;;;13.48;;
65835;SDS011;52595;51.608;7.216;2023-01-01T01:12:45;28.00;;;13.73;;
65835;SDS011;52595;51.608;7.216;2023-01-01T01:15:10;27.05;;;14.73;;
65835;SDS011;52595;51.608;7.216;2023-01-01T01:17:35;23.77;;;13.57;;
65835;SDS011;52595;51.608;7.216;2023-01-01T01:20:02;32.65;;;15.02;;
65835;SDS011;52595;51.608;7.216;2023-01-01T01:22:28;30.40;;;15.55;;
65835;SDS011;52595;51.608;7.216;2023-01-01T01:24:53;27.02;;;13.80;;
65835;SDS011;52595;51.608;7.216;2023-01-01T01:27:19;27.10;;;13.85;;
65835;SDS011;52595;51.608;7.216;2023-01-01T01:29:45;27.27;;;14.05;;
65835;SDS011;52595;51.608;7.216;2023-01-01T01:32:11;28.48;;;13.93;;
65835;SDS011;52595;51.608;7.216;2023-01-01T01:34:36;16.30;;;9.43;;
65835;SDS011;52595;51.608;7.216;2023-01-01T01:37:02;18.15;;;10.63;;
65835;SDS011;52595;51.608;7.216;2023-01-01T01:39:28;19.80;;;10.63;;
65835;SDS011;52595;51.608;7.216;2023-01-01T01:41:53;19.35;;;10.80;;
65835;SDS011;52595;51.608;7.216;2023-01-01T01:47:22;22.13;;;12.02;;
65835;SDS011;52595;51.608;7.216;2023-01-01T01:50:10;25.15;;;13.48;;
65835;SDS011;52595;51.608;7.216;2023-01-01T01:52:41;26.55;;;13.65;;
65835;SDS011;52595;51.608;7.216;2023-01-01T01:55:17;23.88;;;12.68;;
65835;SDS011;52595;51.608;7.216;2023-01-01T01:57:43;19.35;;;9.73;;
65835;SDS011;52595;51.608;7.216;2023-01-01T02:00:08;22.45;;;12.02;;
65835;SDS011;52595;51.608;7.216;2023-01-01T02:02:57;20.55;;;11.60;;
65835;SDS011;52595;51.608;7.216;2023-01-01T02:05:33;25.13;;;10.98;;
65835;SDS011;52595;51.608;7.216;2023-01-01T02:07:59;19.35;;;10.00;;
65835;SDS011;52595;51.608;7.216;2023-01-01T02:10:27;17.35;;;9.60;;
65835;SDS011;52595;51.608;7.216;2023-01-01T02:12:53;17.50;;;8.63;;
65835;SDS011;52595;51.608;7.216;2023-01-01T02:15:19;16.10;;;9.30;;
65835;SDS011;52595;51.608;7.216;2023-01-01T02:17:55;14.25;;;6.97;;
65835;SDS011;52595;51.608;7.216;2023-01-01T02:20:31;14.43;;;7.97;;
65835;SDS011;52595;51.608;7.216;2023-01-01T02:23:35;14.57;;;6.93;;
65835;SDS011;52595;51.608;7.216;2023-01-01T02:25:59;18.67;;;8.55;;
65835;SDS011;52595;51.608;7.216;2023-01-01T02:31:17;21.90;;;7.72;;
65835;SDS011;52595;51.608;7.216;2023-01-01T02:33:48;13.68;;;7.28;;
65835;SDS011;52595;51.608;7.216;2023-01-01T02:36:15;14.82;;;8.38;;
65835;SDS011;52595;51.608;7.216;2023-01-01T02:38:43;13.88;;;7.82;;
65835;SDS011;52595;51.608;7.216;2023-01-01T02:41:19;14.35;;;6.55;;
65835;SDS011;52595;51.608;7.216;2023-01-01T02:43:48;12.73;;;6.90;;
65835;SDS011;52595;51.608;7.216;2023-01-01T02:46:15;10.18;;;5.93;;
65835;SDS011;52595;51.608;7.216;2023-01-01T02:48:41;12.98;;;6.80;;
65835;SDS011;52595;51.608;7.216;2023-01-01T02:54:07;11.43;;;6.22;;
65835;SDS011;52595;51.608;7.216;2023-01-01T02:57:15;13.85;;;5.25;;
65835;SDS011;52595;51.608;7.216;2023-01-01T03:00:00;9.18;;;4.43;;
65835;SDS011;52595;51.608;7.216;2023-01-01T03:11:18;9.43;;;2.85;;
65835;SDS011;52595;51.608;7.216;2023-01-01T03:13:51;5.00;;;1.90;;
65835;SDS011;52595;51.608;7.216;2023-01-01T03:16:25;7.05;;;2.40;;
65835;SDS011;52595;51.608;7.216;2023-01-01T03:19:00;3.50;;;1.50;;
65835;SDS011;52595;51.608;7.216;2023-01-01T03:22:21;7.93;;;2.70;;
65835;SDS011;52595;51.608;7.216;2023-01-01T03:24:31;4.30;;;1.70;;
65835;SDS011;52595;51.608;7.216;2023-01-01T03:27:01;6.80;;;1.83;;
65835;SDS011;52595;51.608;7.216;2023-01-01T03:31:57;5.22;;;2.05;;
65835;SDS011;52595;51.608;7.216;2023-01-01T03:34:29;4.95;;;1.80;;
65835;SDS011;52595;51.608;7.216;2023-01-01T03:37:00;7.03;;;1.80;;
65835;SDS011;52595;51.608;7.216;2023-01-01T03:39:33;4.60;;;1.95;;
65835;SDS011;52595;51.608;7.216;2023-01-01T03:44:46;4.50;;;1.77;;
65835;SDS011;52595;51.608;7.216;2023-01-01T03:47:16;5.25;;;1.80;;
65835;SDS011;52595;51.608;7.216;2023-01-01T03:49:42;4.80;;;1.70;;
65835;SDS011;52595;51.608;7.216;2023-01-01T03:52:14;2.63;;;1.58;;
65835;SDS011;52595;51.608;7.216;2023-01-01T04:00:20;6.50;;;1.80;;
65835;SDS011;52595;51.608;7.216;2023-01-01T04:02:51;3.97;;;1.80;;
65835;SDS011;52595;51.608;7.216;2023-01-01T04:05:20;3.38;;;1.50;;
65835;SDS011;52595;51.608;7.216;2023-01-01T04:07:47;3.78;;;1.60;;
65835;SDS011;52595;51.608;7.216;2023-01-01T04:10:13;5.95;;;1.60;;
65835;SDS011;52595;51.608;7.216;2023-01-01T04:12:51;5.82;;;1.90;;
65835;SDS011;52595;51.608;7.216;2023-01-01T04:15:22;1.73;;;1.30;;
65835;SDS011;52595;51.608;7.216;2023-01-01T04:17:49;4.63;;;1.52;;
65835;SDS011;52595;51.608;7.216;2023-01-01T04:20:16;7.75;;;1.58;;
65835;SDS011;52595;51.608;7.216;2023-01-01T04:22:42;3.00;;;1.50;;
65835;SDS011;52595;51.608;7.216;2023-01-01T04:25:07;5.68;;;1.55;;
65835;SDS011;52595;51.608;7.216;2023-01-01T04:27:34;4.88;;;1.50;;
65835;SDS011;52595;51.608;7.216;2023-01-01T04:29:59;5.38;;;1.58;;
65835;SDS011;52595;51.608;7.216;2023-01-01T04:32:24;6.53;;;1.60;;
65835;SDS011;52595;51.608;7.216;2023-01-01T04:34:50;3.13;;;1.30;;
65835;SDS011;52595;51.608;7.216;2023-01-01T04:37:15;4.93;;;1.45;;
65835;SDS011;52595;51.608;7.216;2023-01-01T04:39:41;2.60;;;1.60;;
65835;SDS011;52595;51.608;7.216;2023-01-01T04:42:07;5.68;;;1.85;;
65835;SDS011;52595;51.608;7.216;2023-01-01T04:44:32;3.53;;;1.30;;
65835;SDS011;52595;51.608;7.216;2023-01-01T04:46:58;4.32;;;1.50;;
65835;SDS011;52595;51.608;7.216;2023-01-01T04:49:23;3.75;;;1.70;;
65835;SDS011;52595;51.608;7.216;2023-01-01T04:51:49;5.72;;;1.63;;
65835;SDS011;52595;51.608;7.216;2023-01-01T04:54:14;6.95;;;1.50;;
65835;SDS011;52595;51.608;7.216;2023-01-01T04:56:39;4.70;;;1.77;;
65835;SDS011;52595;51.608;7.216;2023-01-01T04:59:05;8.10;;;1.60;;
65835;SDS011;52595;51.608;7.216;2023-01-01T05:01:30;7.18;;;1.45;;
65835;SDS011;52595;51.608;7.216;2023-01-01T05:03:57;5.85;;;1.67;;
65835;SDS011;52595;51.608;7.216;2023-01-01T05:06:23;5.38;;;1.60;;
65835;SDS011;52595;51.608;7.216;2023-01-01T05:08:50;4.80;;;1.70;;
65835;SDS011;52595;51.608;7.216;2023-01-01T05:13:47;7.07;;;2.17;;
65835;SDS011;52595;51.608;7.216;2023-01-01T05:16:15;4.18;;;1.90;;
65835;SDS011;52595;51.608;7.216;2023-01-01T05:18:42;3.92;;;1.52;;
65835;SDS011;52595;51.608;7.216;2023-01-01T05:21:10;5.47;;;1.70;;
65835;SDS011;52595;51.608;7.216;2023-01-01T05:23:38;4.10;;;1.58;;
65835;SDS011;52595;51.608;7.216;2023-01-01T05:26:17;5.85;;;1.92;;
65835;SDS011;52595;51.608;7.216;2023-01-01T05:28:45;6.70;;;2.00;;
65835;SDS011;52595;51.608;7.216;2023-01-01T05:31:12;3.83;;;1.55;;
65835;SDS011;52595;51.608;7.216;2023-01-01T05:33:39;5.32;;;1.88;;
65835;SDS011;52595;51.608;7.216;2023-01-01T05:36:05;11.02;;;2.10;;
65835;SDS011;52595;51.608;7.216;2023-01-01T05:38:33;5.35;;;1.60;;
65835;SDS011;52595;51.608;7.216;2023-01-01T05:40:58;5.93;;;2.13;;
65835;SDS011;52595;51.608;7.216;2023-01-01T05:43:24;10.48;;;1.88;;
65835;SDS011;52595;51.608;7.216;2023-01-01T05:45:57;5.47;;;1.60;;
65835;SDS011;52595;51.608;7.216;2023-01-01T05:48:27;4.05;;;1.83;;
65835;SDS011;52595;51.608;7.216;2023-01-01T05:50:52;4.93;;;1.60;;
65835;SDS011;52595;51.608;7.216;2023-01-01T05:53:18;3.58;;;1.52;;
65835;SDS011;52595;51.608;7.216;2023-01-01T05:55:43;3.17;;;1.58;;
65835;SDS011;52595;51.608;7.216;2023-01-01T05:58:08;6.00;;;1.67;;
65835;SDS011;52595;51.608;7.216;2023-01-01T06:00:34;6.70;;;1.83;;
65835;SDS011;52595;51.608;7.216;2023-01-01T06:02:59;3.50;;;1.50;;
65835;SDS011;52595;51.608;7.216;2023-01-01T06:05:24;6.22;;;1.65;;
65835;SDS011;52595;51.608;7.216;2023-01-01T06:07:50;6.28;;;1.60;;
65835;SDS011;52595;51.608;7.216;2023-01-01T06:10:15;4.28;;;1.50;;
65835;SDS011;52595;51.608;7.216;2023-01-01T06:12:41;4.15;;;1.50;;
65835;SDS011;52595;51.608;7.216;2023-01-01T06:15:06;6.68;;;1.70;;
65835;SDS011;52595;51.608;7.216;2023-01-01T06:17:32;3.05;;;1.30;;
65835;SDS011;52595;51.608;7.216;2023-01-01T06:19:58;3.72;;;1.48;;
65835;SDS011;52595;51.608;7.216;2023-01-01T06:22:23;2.75;;;1.45;;
65835;SDS011;52595;51.608;7.216;2023-01-01T06:24:49;5.25;;;1.50;;
65835;SDS011;52595;51.608;7.216;2023-01-01T06:27:14;6.07;;;1.75;;
65835;SDS011;52595;51.608;7.216;2023-01-01T06:29:39;3.90;;;1.42;;
65835;SDS011;52595;51.608;7.216;2023-01-01T06:32:05;4.70;;;1.90;;
65835;SDS011;52595;51.608;7.216;2023-01-01T06:34:30;3.30;;;1.30;;
65835;SDS011;52595;51.608;7.216;2023-01-01T06:36:55;3.30;;;1.50;;
65835;SDS011;52595;51.608;7.216;2023-01-01T06:39:21;3.22;;;1.45;;
65835;SDS011;52595;51.608;7.216;2023-01-01T06:41:46;6.88;;;1.70;;
65835;SDS011;52595;51.608;7.216;2023-01-01T06:44:12;4.85;;;1.65;;
65835;SDS011;52595;51.608;7.216;2023-01-01T06:46:37;4.65;;;1.60;;
65835;SDS011;52595;51.608;7.216;2023-01-01T06:49:04;4.40;;;1.45;;
65835;SDS011;52595;51.608;7.216;2023-01-01T06:51:32;4.88;;;1.50;;
65835;SDS011;52595;51.608;7.216;2023-01-01T06:56:28;3.03;;;1.80;;
65835;SDS011;52595;51.608;7.216;2023-01-01T06:58:54;2.95;;;1.48;;
65835;SDS011;52595;51.608;7.216;2023-01-01T07:01:21;4.55;;;1.50;;
65835;SDS011;52595;51.608;7.216;2023-01-01T07:03:51;5.85;;;1.83;;
65835;SDS011;52595;51.608;7.216;2023-01-01T07:06:17;4.60;;;1.52;;
65835;SDS011;52595;51.608;7.216;2023-01-01T07:08:42;4.47;;;1.60;;
65835;SDS011;52595;51.608;7.216;2023-01-01T07:11:08;4.38;;;1.60;;
65835;SDS011;52595;51.608;7.216;2023-01-01T07:13:33;5.70;;;1.52;;
65835;SDS011;52595;51.608;7.216;2023-01-01T07:15:59;2.83;;;1.30;;
65835;SDS011;52595;51.608;7.216;2023-01-01T07:18:24;6.22;;;3.00;;
65835;SDS011;52595;51.608;7.216;2023-01-01T07:20:50;4.22;;;1.63;;
65835;SDS011;52595;51.608;7.216;2023-01-01T07:23:17;4.72;;;1.55;;
65835;SDS011;52595;51.608;7.216;2023-01-01T07:25:43;5.05;;;1.75;;
65835;SDS011;52595;51.608;7.216;2023-01-01T07:28:09;4.47;;;1.40;;
65835;SDS011;52595;51.608;7.216;2023-01-01T07:30:34;6.35;;;1.60;;
65835;SDS011;52595;51.608;7.216;2023-01-01T07:33:00;5.82;;;1.85;;
65835;SDS011;52595;51.608;7.216;2023-01-01T07:35:25;4.15;;;1.52;;
65835;SDS011;52595;51.608;7.216;2023-01-01T07:37:50;3.38;;;1.30;;
65835;SDS011;52595;51.608;7.216;2023-01-01T07:40:16;3.35;;;1.50;;
65835;SDS011;52595;51.608;7.216;2023-01-01T07:42:41;6.03;;;1.77;;
65835;SDS011;52595;51.608;7.216;2023-01-01T07:45:07;3.92;;;1.60;;
65835;SDS011;52595;51.608;7.216;2023-01-01T07:47:35;8.55;;;2.10;;
65835;SDS011;52595;51.608;7.216;2023-01-01T07:50:01;4.38;;;1.77;;
65835;SDS011;52595;51.608;7.216;2023-01-01T07:52:26;7.50;;;2.20;;
65835;SDS011;52595;51.608;7.216;2023-01-01T07:54:51;5.57;;;1.67;;
65835;SDS011;52595;51.608;7.216;2023-01-01T07:57:17;3.92;;;1.67;;
65835;SDS011;52595;51.608;7.216;2023-01-01T07:59:42;5.18;;;2.17;;
65835;SDS011;52595;51.608;7.216;2023-01-01T08:02:09;4.18;;;1.70;;
65835;SDS011;52595;51.608;7.216;2023-01-01T08:04:36;3.88;;;1.80;;
65835;SDS011;52595;51.608;7.216;2023-01-01T08:07:02;5.20;;;1.55;;
65835;SDS011;52595;51.608;7.216;2023-01-01T08:09:28;5.00;;;1.85;;
65835;SDS011;52595;51.608;7.216;2023-01-01T08:11:53;4.28;;;1.98;;
65835;SDS011;52595;51.608;7.216;2023-01-01T08:14:18;5.60;;;2.03;;
65835;SDS011;52595;51.608;7.216;2023-01-01T08:16:44;3.88;;;1.67;;
65835;SDS011;52595;51.608;7.216;2023-01-01T08:19:09;4.43;;;1.65;;
65835;SDS011;52595;51.608;7.216;2023-01-01T08:21:35;2.28;;;1.42;;
65835;SDS011;52595;51.608;7.216;2023-01-01T08:24:00;6.13;;;2.00;;
65835;SDS011;52595;51.608;7.216;2023-01-01T08:26:29;4.93;;;2.00;;
65835;SDS011;52595;51.608;7.216;2023-01-01T08:28:57;5.80;;;1.95;;
65835;SDS011;52595;51.608;7.216;2023-01-01T08:31:23;3.28;;;1.33;;
65835;SDS011;52595;51.608;7.216;2023-01-01T08:33:49;7.38;;;1.73;;
65835;SDS011;52595;51.608;7.216;2023-01-01T08:36:15;6.22;;;1.90;;
65835;SDS011;52595;51.608;7.216;2023-01-01T08:38:41;5.05;;;2.08;;
65835;SDS011;52595;51.608;7.216;2023-01-01T08:41:07;4.50;;;1.80;;
65835;SDS011;52595;51.608;7.216;2023-01-01T08:43:33;4.78;;;1.75;;
65835;SDS011;52595;51.608;7.216;2023-01-01T08:45:58;6.47;;;1.80;;
65835;SDS011;52595;51.608;7.216;2023-01-01T08:48:24;5.88;;;2.42;;
65835;SDS011;52595;51.608;7.216;2023-01-01T08:50:53;6.53;;;1.90;;
65835;SDS011;52595;51.608;7.216;2023-01-01T08:53:18;7.60;;;2.28;;
65835;SDS011;52595;51.608;7.216;2023-01-01T08:55:44;6.85;;;2.13;;
65835;SDS011;52595;51.608;7.216;2023-01-01T08:58:09;6.80;;;2.08;;
65835;SDS011;52595;51.608;7.216;2023-01-01T09:00:35;6.60;;;1.88;;
65835;SDS011;52595;51.608;7.216;2023-01-01T09:03:00;5.93;;;1.88;;
65835;SDS011;52595;51.608;7.216;2023-01-01T09:05:26;5.65;;;1.90;;
65835;SDS011;52595;51.608;7.216;2023-01-01T09:07:51;5.00;;;1.90;;
65835;SDS011;52595;51.608;7.216;2023-01-01T09:10:16;3.80;;;1.52;;
65835;SDS011;52595;51.608;7.216;2023-01-01T09:12:42;5.22;;;1.95;;
65835;SDS011;52595;51.608;7.216;2023-01-01T09:15:11;6.47;;;1.65;;
65835;SDS011;52595;51.608;7.216;2023-01-01T09:17:39;4.97;;;1.77;;
65835;SDS011;52595;51.608;7.216;2023-01-01T09:20:05;6.68;;;2.97;;
65835;SDS011;52595;51.608;7.216;2023-01-01T09:22:31;4.95;;;1.80;;
65835;SDS011;52595;51.608;7.216;2023-01-01T09:24:57;3.45;;;1.75;;
65835;SDS011;52595;51.608;7.216;2023-01-01T09:27:23;9.27;;;2.20;;
65835;SDS011;52595;51.608;7.216;2023-01-01T09:29:48;5.63;;;1.70;;
65835;SDS011;52595;51.608;7.216;2023-01-01T09:32:14;6.53;;;2.20;;
65835;SDS011;52595;51.608;7.216;2023-01-01T09:34:39;6.90;;;2.00;;
65835;SDS011;52595;51.608;7.216;2023-01-01T09:37:04;6.15;;;2.13;;
65835;SDS011;52595;51.608;7.216;2023-01-01T09:39:30;9.75;;;2.22;;
65835;SDS011;52595;51.608;7.216;2023-01-01T09:47:40;8.20;;;1.75;;
65835;SDS011;52595;51.608;7.216;2023-01-01T09:50:12;3.58;;;1.70;;
65835;SDS011;52595;51.608;7.216;2023-01-01T09:52:45;7.13;;;2.00;;
65835;SDS011;52595;51.608;7.216;2023-01-01T09:58:12;6.68;;;2.47;;
65835;SDS011;52595;51.608;7.216;2023-01-01T10:00:41;8.00;;;2.00;;
65835;SDS011;52595;51.608;7.216;2023-01-01T10:03:28;5.25;;;1.90;;
65835;SDS011;52595;51.608;7.216;2023-01-01T10:08:46;6.93;;;1.98;;
65835;SDS011;52595;51.608;7.216;2023-01-01T10:13:49;4.90;;;1.80;;
65835;SDS011;52595;51.608;7.216;2023-01-01T10:18:55;5.82;;;1.90;;
65835;SDS011;52595;51.608;7.216;2023-01-01T10:21:42;6.13;;;1.80;;
65835;SDS011;52595;51.608;7.216;2023-01-01T10:24:21;5.70;;;1.80;;
65835;SDS011;52595;51.608;7.216;2023-01-01T10:26:51;6.00;;;1.98;;
65835;SDS011;52595;51.608;7.216;2023-01-01T10:29:41;5.13;;;1.90;;
65835;SDS011;52595;51.608;7.216;2023-01-01T10:34:58;4.38;;;1.63;;
65835;SDS011;52595;51.608;7.216;2023-01-01T10:37:27;6.47;;;1.95;;
65835;SDS011;52595;51.608;7.216;2023-01-01T10:39:58;5.25;;;2.15;;
65835;SDS011;52595;51.608;7.216;2023-01-01T10:42:26;5.03;;;1.95;;
65835;SDS011;52595;51.608;7.216;2023-01-01T10:44:52;8.38;;;2.08;;
65835;SDS011;52595;51.608;7.216;2023-01-01T10:49:54;7.65;;;2.10;;
65835;SDS011;52595;51.608;7.216;2023-01-01T10:52:28;6.63;;;1.90;;
65835;SDS011;52595;51.608;7.216;2023-01-01T10:54:58;4.43;;;1.58;;
65835;SDS011;52595;51.608;7.216;2023-01-01T10:57:29;4.10;;;1.80;;
65835;SDS011;52595;51.608;7.216;2023-01-01T11:02:43;6.55;;;1.98;;
65835;SDS011;52595;51.608;7.216;2023-01-01T11:05:11;4.45;;;1.60;;
65835;SDS011;52595;51.608;7.216;2023-01-01T11:07:43;3.88;;;1.60;;
65835;SDS011;52595;51.608;7.216;2023-01-01T11:10:42;7.95;;;1.98;;
65835;SDS011;52595;51.608;7.216;2023-01-01T11:13:00;5.85;;;2.03;;
65835;SDS011;52595;51.608;7.216;2023-01-01T11:15:34;4.72;;;1.80;;
65835;SDS011;52595;51.608;7.216;2023-01-01T11:18:05;7.45;;;1.90;;
65835;SDS011;52595;51.608;7.216;2023-01-01T11:20:39;4.20;;;1.60;;
65835;SDS011;52595;51.608;7.216;2023-01-01T11:23:48;6.70;;;2.10;;
65835;SDS011;52595;51.608;7.216;2023-01-01T11:28:25;5.25;;;1.92;;
65835;SDS011;52595;51.608;7.216;2023-01-01T11:33:43;4.10;;;1.50;;
65835;SDS011;52595;51.608;7.216;2023-01-01T11:36:18;4.95;;;1.55;;
65835;SDS011;52595;51.608;7.216;2023-01-01T11:38:46;2.90;;;1.40;;
65835;SDS011;52595;51.608;7.216;2023-01-01T11:41:27;4.82;;;1.90;;
65835;SDS011;52595;51.608;7.216;2023-01-01T11:43:52;3.95;;;1.60;;
65835;SDS011;52595;51.608;7.216;2023-01-01T11:46:21;7.00;;;1.88;;
65835;SDS011;52595;51.608;7.216;2023-01-01T11:48:48;8.07;;;2.55;;
65835;SDS011;52595;51.608;7.216;2023-01-01T11:51:28;20.40;;;1.70;;
65835;SDS011;52595;51.608;7.216;2023-01-01T11:54:11;5.82;;;2.00;;
65835;SDS011;52595;51.608;7.216;2023-01-01T11:56:48;5.10;;;1.85;;
65835;SDS011;52595;51.608;7.216;2023-01-01T11:59:19;7.18;;;1.70;;
65835;SDS011;52595;51.608;7.216;2023-01-01T12:01:48;5.07;;;1.85;;
65835;SDS011;52595;51.608;7.216;2023-01-01T12:09:39;7.22;;;2.17;;
65835;SDS011;52595;51.608;7.216;2023-01-01T12:12:12;6.60;;;2.10;;
65835;SDS011;52595;51.608;7.216;2023-01-01T12:14:55;7.53;;;1.90;;
65835;SDS011;52595;51.608;7.216;2023-01-01T12:22:49;6.80;;;2.10;;
65835;SDS011;52595;51.608;7.216;2023-01-01T12:25:17;6.15;;;1.70;;
65835;SDS011;52595;51.608;7.216;2023-01-01T12:28:07;5.68;;;2.10;;
65835;SDS011;52595;51.608;7.216;2023-01-01T12:39:23;7.03;;;1.90;;
65835;SDS011;52595;51.608;7.216;2023-01-01T12:50:04;7.90;;;2.00;;
65835;SDS011;52595;51.608;7.216;2023-01-01T12:56:09;7.65;;;2.08;;
65835;SDS011;52595;51.608;7.216;2023-01-01T12:58:41;5.30;;;1.70;;
65835;SDS011;52595;51.608;7.216;2023-01-01T13:01:22;6.93;;;1.83;;
65835;SDS011;52595;51.608;7.216;2023-01-01T13:03:58;5.68;;;1.70;;
65835;SDS011;52595;51.608;7.216;2023-01-01T13:08:59;6.10;;;1.60;;
65835;SDS011;52595;51.608;7.216;2023-01-01T13:11:36;7.50;;;1.60;;
65835;SDS011;52595;51.608;7.216;2023-01-01T13:14:04;5.25;;;1.60;;
65835;SDS011;52595;51.608;7.216;2023-01-01T13:16:39;6.57;;;2.00;;
65835;SDS011;52595;51.608;7.216;2023-01-01T13:19:06;5.50;;;1.85;;
65835;SDS011;52595;51.608;7.216;2023-01-01T13:21:56;9.07;;;2.13;;
65835;SDS011;52595;51.608;7.216;2023-01-01T13:24:22;4.70;;;2.00;;
65835;SDS011;52595;51.608;7.216;2023-01-01T13:26:49;7.45;;;2.08;;
65835;SDS011;52595;51.608;7.216;2023-01-01T13:32:08;4.28;;;1.70;;
65835;SDS011;52595;51.608;7.216;2023-01-01T13:34:36;5.82;;;1.83;;
65835;SDS011;52595;51.608;7.216;2023-01-01T13:40:46;7.20;;;2.45;;
65835;SDS011;52595;51.608;7.216;2023-01-01T13:43:33;6.65;;;1.80;;
65835;SDS011;52595;51.608;7.216;2023-01-01T13:45:42;3.78;;;1.80;;
65835;SDS011;52595;51.608;7.216;2023-01-01T13:56:46;11.40;;;2.40;;
65835;SDS011;52595;51.608;7.216;2023-01-01T13:59:22;7.28;;;2.30;;
65835;SDS011;52595;51.608;7.216;2023-01-01T14:01:57;11.88;;;2.20;;
65835;SDS011;52595;51.608;7.216;2023-01-01T14:04:47;9.90;;;2.25;;
65835;SDS011;52595;51.608;7.216;2023-01-01T14:15:49;6.32;;;1.65;;
65835;SDS011;52595;51.608;7.216;2023-01-01T14:18:24;5.60;;;2.03;;
65835;SDS011;52595;51.608;7.216;2023-01-01T14:21:07;7.50;;;1.83;;
65835;SDS011;52595;51.608;7.216;2023-01-01T14:23:38;5.72;;;2.00;;
65835;SDS011;52595;51.608;7.216;2023-01-01T14:26:07;5.22;;;1.90;;
65835;SDS011;52595;51.608;7.216;2023-01-01T14:28:36;4.30;;;2.00;;
65835;SDS011;52595;51.608;7.216;2023-01-01T14:31:03;6.53;;;2.10;;
65835;SDS011;52595;51.608;7.216;2023-01-01T14:33:35;7.40;;;2.42;;
65835;SDS011;52595;51.608;7.216;2023-01-01T14:36:01;6.82;;;2.03;;
65835;SDS011;52595;51.608;7.216;2023-01-01T14:38:33;7.00;;;2.00;;
65835;SDS011;52595;51.608;7.216;2023-01-01T14:41:05;5.55;;;2.40;;
65835;SDS011;52595;51.608;7.216;2023-01-01T14:43:38;5.70;;;2.10;;
65835;SDS011;52595;51.608;7.216;2023-01-01T14:46:06;7.50;;;2.30;;
65835;SDS011;52595;51.608;7.216;2023-01-01T14:48:37;6.03;;;1.85;;
65835;SDS011;52595;51.608;7.216;2023-01-01T14:51:09;7.35;;;2.35;;
65835;SDS011;52595;51.608;7.216;2023-01-01T14:53:37;6.80;;;2.20;;
65835;SDS011;52595;51.608;7.216;2023-01-01T14:56:03;8.48;;;2.25;;
65835;SDS011;52595;51.608;7.216;2023-01-01T14:58:31;8.48;;;2.30;;
65835;SDS011;52595;51.608;7.216;2023-01-01T15:01:13;10.23;;;2.30;;
65835;SDS011;52595;51.608;7.216;2023-01-01T15:04:02;4.57;;;1.70;;
65835;SDS011;52595;51.608;7.216;2023-01-01T15:06:29;9.38;;;2.13;;
65835;SDS011;52595;51.608;7.216;2023-01-01T15:08:56;8.60;;;1.90;;
65835;SDS011;52595;51.608;7.216;2023-01-01T15:11:21;8.93;;;2.30;;
65835;SDS011;52595;51.608;7.216;2023-01-01T15:19:30;7.00;;;2.10;;
65835;SDS011;52595;51.608;7.216;2023-01-01T15:21:56;7.53;;;2.40;;
65835;SDS011;52595;51.608;7.216;2023-01-01T15:24:22;9.07;;;2.40;;
65835;SDS011;52595;51.608;7.216;2023-01-01T15:29:20;7.30;;;2.03;;
65835;SDS011;52595;51.608;7.216;2023-01-01T15:31:52;8.27;;;2.47;;
65835;SDS011;52595;51.608;7.216;2023-01-01T15:34:22;7.50;;;2.30;;
65835;SDS011;52595;51.608;7.216;2023-01-01T15:39:17;6.72;;;1.90;;
65835;SDS011;52595;51.608;7.216;2023-01-01T15:41:44;7.47;;;2.40;;
65835;SDS011;52595;51.608;7.216;2023-01-01T15:46:44;7.03;;;2.08;;
65835;SDS011;52595;51.608;7.216;2023-01-01T15:49:44;8.07;;;1.88;;
65835;SDS011;52595;51.608;7.216;2023-01-01T15:52:03;6.05;;;2.20;;
65835;SDS011;52595;51.608;7.216;2023-01-01T15:54:37;7.03;;;1.83;;
65835;SDS011;52595;51.608;7.216;2023-01-01T15:57:10;7.35;;;2.67;;
65835;SDS011;52595;51.608;7.216;2023-01-01T15:59:42;9.90;;;3.22;;
65835;SDS011;52595;51.608;7.216;2023-01-01T16:04:50;9.15;;;2.80;;
65835;SDS011;52595;51.608;7.216;2023-01-01T16:07:16;8.05;;;2.50;;
65835;SDS011;52595;51.608;7.216;2023-01-01T16:09:48;8.93;;;3.28;;
65835;SDS011;52595;51.608;7.216;2023-01-01T16:12:14;9.35;;;2.78;;
65835;SDS011;52595;51.608;7.216;2023-01-01T16:14:39;8.20;;;2.63;;
65835;SDS011;52595;51.608;7.216;2023-01-01T16:17:08;7.60;;;2.13;;
65835;SDS011;52595;51.608;7.216;2023-01-01T16:19:41;6.40;;;2.55;;
65835;SDS011;52595;51.608;7.216;2023-01-01T16:22:09;5.93;;;2.08;;
65835;SDS011;52595;51.608;7.216;2023-01-01T16:24:37;8.32;;;2.50;;
65835;SDS011;52595;51.608;7.216;2023-01-01T16:27:02;7.05;;;2.40;;
65835;SDS011;52595;51.608;7.216;2023-01-01T16:29:28;7.72;;;2.67;;
65835;SDS011;52595;51.608;7.216;2023-01-01T16:31:53;7.07;;;2.10;;
65835;SDS011;52595;51.608;7.216;2023-01-01T16:34:19;9.98;;;2.55;;
65835;SDS011;52595;51.608;7.216;2023-01-01T16:36:44;8.65;;;2.65;;
65835;SDS011;52595;51.608;7.216;2023-01-01T16:39:10;7.97;;;2.65;;
65835;SDS011;52595;51.608;7.216;2023-01-01T16:41:37;10.50;;;2.90;;
65835;SDS011;52595;51.608;7.216;2023-01-01T16:44:04;6.82;;;3.17;;
65835;SDS011;52595;51.608;7.216;2023-01-01T16:46:29;8.85;;;2.78;;
65835;SDS011;52595;51.608;7.216;2023-01-01T16:48:57;7.30;;;3.00;;
65835;SDS011;52595;51.608;7.216;2023-01-01T16:51:23;7.32;;;3.20;;
65835;SDS011;52595;51.608;7.216;2023-01-01T16:53:51;5.47;;;2.72;;
65835;SDS011;52595;51.608;7.216;2023-01-01T16:56:16;8.07;;;3.15;;
65835;SDS011;52595;51.608;7.216;2023-01-01T16:58:42;8.00;;;3.10;;
65835;SDS011;52595;51.608;7.216;2023-01-01T17:01:07;8.85;;;3.83;;
65835;SDS011;52595;51.608;7.216;2023-01-01T17:03:33;8.60;;;3.00;;
65835;SDS011;52595;51.608;7.216;2023-01-01T17:06:06;9.77;;;3.10;;
65835;SDS011;52595;51.608;7.216;2023-01-01T17:08:33;7.63;;;3.00;;
65835;SDS011;52595;51.608;7.216;2023-01-01T17:11:04;10.32;;;4.40;;